Indian Mills, New Jersey
Current Conditions -  °F | °C
As of 6:54 AM on Saturday 01 Nov 2014 (Local Time) from KVAY Reporting Station
Moderate Rain Moderate Rain  
Wind Chill: 36°   Ceiling: 1100
Heat Index: 44°   Visibility: 5mi
Dew Point: 41°   Wind: 17mph
Humidity: 89%   Direction: 20°NNE
Pressure: 29.79"   Gusts: 23mph
Location:  39.7955°N, 74.6301°W
Report Text: KVAY 011054Z AUTO 02015G20KT 5SM RA BR OVC011 07/05 A2979 RMK AO2 SLP086 P0013 T00670050
Loading
Personal Weather Stations






























Interactive Weather Map New forecast layout! Learn more

10-Day Weather Forecast

Advertisements
Track Severe Weather on mobile